Waltham Webcam and Heathrow Weather

This webcam image will automatically refresh every 15 seconds.

METAR and TAF for EGLL Heathrow (12 Nautical Miles East of White Waltham)

Available data for EGLL from the past hour
LONDON/HEATHROW
Metar
EGLL 211050Z AUTO 22008KT 180V260 9999 NCD 20/11 Q1027 NOSIG

10:50 UTC

Wind: 220° 8kt

Visibility: 9999 m

Sky:

Temp: 20 deg C / 68 deg F

Dewpoint: 11 deg C / 51.8 deg F

Pressure: 1027 hPa

TAF
TAF EGLL 210459Z 2106/2212 20006KT 9999 SCT035

Play 24 hour timelapse | Play 30 day timelapse